Albertson, New York
Current Conditions -  °F | °C
As of 7:51 AM on Sunday 23 Nov 2014 (Local Time) from KJFK Reporting Station
Broken Clouds Broken Clouds  
Wind Chill:   Ceiling: 11000
Heat Index:   Visibility: 10mi
Dew Point: -3°   Wind: 8mph
Humidity: 49%   Direction: 240°WSW
Pressure: 30.23"   Gusts: NA
Location:  40.77°N, 73.65°W
Report Text: KJFK 231251Z 24007KT 10SM SCT080 BKN110 BKN250 07/M03 A3023 RMK AO2 SLP236 T00671033 $
Loading
Personal Weather Stations






























Interactive Weather Map New forecast layout! Learn more

10-Day Weather Forecast

Advertisements
Track Severe Weather on mobile